sensor_id;sensor_type;location;lat;lon;timestamp;temperature;humidity
429;DHT22;201;48.758;9.290;2023-06-01T00:00:13;16.40;1.00
429;DHT22;201;48.758;9.290;2023-06-01T00:02:39;16.40;1.00
429;DHT22;201;48.758;9.290;2023-06-01T00:05:06;16.40;1.00
429;DHT22;201;48.758;9.290;2023-06-01T00:07:32;16.50;1.00
429;DHT22;201;48.758;9.290;2023-06-01T00:09:58;16.40;1.00
429;DHT22;201;48.758;9.290;2023-06-01T00:12:24;16.30;1.00
429;DHT22;201;48.758;9.290;2023-06-01T00:14:50;16.30;1.00
429;DHT22;201;48.758;9.290;2023-06-01T00:17:15;16.20;1.00
429;DHT22;201;48.758;9.290;2023-06-01T00:19:41;16.00;1.00
429;DHT22;201;48.758;9.290;2023-06-01T00:22:10;15.90;1.00
429;DHT22;201;48.758;9.290;2023-06-01T00:24:36;15.80;1.00
429;DHT22;201;48.758;9.290;2023-06-01T00:27:02;15.70;1.00
429;DHT22;201;48.758;9.290;2023-06-01T00:29:29;15.70;1.00
429;DHT22;201;48.758;9.290;2023-06-01T00:31:54;15.60;1.00
429;DHT22;201;48.758;9.290;2023-06-01T00:34:20;15.50;1.00
429;DHT22;201;48.758;9.290;2023-06-01T00:36:46;15.50;1.00
429;DHT22;201;48.758;9.290;2023-06-01T00:39:11;15.50;1.00
429;DHT22;201;48.758;9.290;2023-06-01T00:41:37;15.40;1.00
429;DHT22;201;48.758;9.290;2023-06-01T00:44:02;15.20;1.00
429;DHT22;201;48.758;9.290;2023-06-01T00:46:30;15.20;1.00
429;DHT22;201;48.758;9.290;2023-06-01T00:48:55;15.20;1.00
429;DHT22;201;48.758;9.290;2023-06-01T00:51:21;15.10;1.00
429;DHT22;201;48.758;9.290;2023-06-01T00:53:47;15.10;1.00
429;DHT22;201;48.758;9.290;2023-06-01T00:56:13;15.00;1.00
429;DHT22;201;48.758;9.290;2023-06-01T00:58:42;14.90;1.00
429;DHT22;201;48.758;9.290;2023-06-01T01:01:08;14.80;1.00
429;DHT22;201;48.758;9.290;2023-06-01T01:03:48;14.80;1.00
429;DHT22;201;48.758;9.290;2023-06-01T01:06:50;14.70;1.00
429;DHT22;201;48.758;9.290;2023-06-01T01:09:32;14.70;1.00
429;DHT22;201;48.758;9.290;2023-06-01T01:12:08;14.80;1.00
429;DHT22;201;48.758;9.290;2023-06-01T01:14:50;14.80;1.00
429;DHT22;201;48.758;9.290;2023-06-01T01:17:39;14.80;1.00
429;DHT22;201;48.758;9.290;2023-06-01T01:20:18;14.70;1.00
429;DHT22;201;48.758;9.290;2023-06-01T01:22:56;14.80;1.00
429;DHT22;201;48.758;9.290;2023-06-01T01:28:53;14.80;1.00
429;DHT22;201;48.758;9.290;2023-06-01T01:31:23;14.70;1.00
429;DHT22;201;48.758;9.290;2023-06-01T01:33:53;14.70;1.00
429;DHT22;201;48.758;9.290;2023-06-01T01:36:19;14.80;1.00
429;DHT22;201;48.758;9.290;2023-06-01T01:38:45;14.80;1.00
429;DHT22;201;48.758;9.290;2023-06-01T01:41:10;14.80;1.00
429;DHT22;201;48.758;9.290;2023-06-01T01:43:37;14.80;1.00
429;DHT22;201;48.758;9.290;2023-06-01T01:46:26;14.80;1.00
429;DHT22;201;48.758;9.290;2023-06-01T01:49:01;14.90;1.00
429;DHT22;201;48.758;9.290;2023-06-01T01:51:45;14.90;1.00
429;DHT22;201;48.758;9.290;2023-06-01T01:54:14;15.00;1.00
429;DHT22;201;48.758;9.290;2023-06-01T01:56:42;14.90;1.00
429;DHT22;201;48.758;9.290;2023-06-01T01:59:09;14.90;1.00
429;DHT22;201;48.758;9.290;2023-06-01T02:01:35;14.90;1.00
429;DHT22;201;48.758;9.290;2023-06-01T02:04:03;14.90;1.00
429;DHT22;201;48.758;9.290;2023-06-01T02:06:29;14.90;1.00
429;DHT22;201;48.758;9.290;2023-06-01T02:08:56;14.80;1.00
429;DHT22;201;48.758;9.290;2023-06-01T02:11:21;14.80;1.00
429;DHT22;201;48.758;9.290;2023-06-01T02:13:47;14.70;1.00
429;DHT22;201;48.758;9.290;2023-06-01T02:16:13;14.70;1.00
429;DHT22;201;48.758;9.290;2023-06-01T02:18:38;14.60;1.00
429;DHT22;201;48.758;9.290;2023-06-01T02:21:05;14.50;1.00
429;DHT22;201;48.758;9.290;2023-06-01T02:23:30;14.50;1.00
429;DHT22;201;48.758;9.290;2023-06-01T02:25:56;14.40;1.00
429;DHT22;201;48.758;9.290;2023-06-01T02:28:21;14.40;1.00
429;DHT22;201;48.758;9.290;2023-06-01T02:30:47;14.30;1.00
429;DHT22;201;48.758;9.290;2023-06-01T02:33:12;14.30;1.00
429;DHT22;201;48.758;9.290;2023-06-01T02:35:38;14.20;1.00
429;DHT22;201;48.758;9.290;2023-06-01T02:38:04;14.30;1.00
429;DHT22;201;48.758;9.290;2023-06-01T02:40:30;14.20;1.00
429;DHT22;201;48.758;9.290;2023-06-01T02:42:56;14.20;1.00
429;DHT22;201;48.758;9.290;2023-06-01T02:45:21;14.20;1.00
429;DHT22;201;48.758;9.290;2023-06-01T02:47:47;14.10;1.00
429;DHT22;201;48.758;9.290;2023-06-01T02:50:12;14.10;1.00
429;DHT22;201;48.758;9.290;2023-06-01T02:52:38;14.10;1.00
429;DHT22;201;48.758;9.290;2023-06-01T02:55:04;14.10;1.00
429;DHT22;201;48.758;9.290;2023-06-01T02:57:31;14.00;1.00
429;DHT22;201;48.758;9.290;2023-06-01T02:59:56;13.90;1.00
429;DHT22;201;48.758;9.290;2023-06-01T03:02:22;13.90;1.00
429;DHT22;201;48.758;9.290;2023-06-01T03:04:47;14.00;1.00
429;DHT22;201;48.758;9.290;2023-06-01T03:07:14;14.00;1.00
429;DHT22;201;48.758;9.290;2023-06-01T03:09:39;13.80;1.00
429;DHT22;201;48.758;9.290;2023-06-01T03:12:05;13.70;1.00
429;DHT22;201;48.758;9.290;2023-06-01T03:14:32;13.60;1.00
429;DHT22;201;48.758;9.290;2023-06-01T03:16:57;13.60;1.00
429;DHT22;201;48.758;9.290;2023-06-01T03:19:23;13.60;1.00
429;DHT22;201;48.758;9.290;2023-06-01T03:21:48;13.50;1.00
429;DHT22;201;48.758;9.290;2023-06-01T03:24:14;13.50;1.00
429;DHT22;201;48.758;9.290;2023-06-01T03:26:40;13.60;1.00
429;DHT22;201;48.758;9.290;2023-06-01T03:29:06;13.50;1.00
429;DHT22;201;48.758;9.290;2023-06-01T03:31:31;13.40;1.00
429;DHT22;201;48.758;9.290;2023-06-01T03:34:00;13.40;1.00
429;DHT22;201;48.758;9.290;2023-06-01T03:36:25;13.40;1.00
429;DHT22;201;48.758;9.290;2023-06-01T03:38:51;13.40;1.00
429;DHT22;201;48.758;9.290;2023-06-01T03:41:16;13.40;1.00
429;DHT22;201;48.758;9.290;2023-06-01T03:43:42;13.40;1.00
429;DHT22;201;48.758;9.290;2023-06-01T03:46:07;13.40;1.00
429;DHT22;201;48.758;9.290;2023-06-01T03:48:34;13.40;1.00
429;DHT22;201;48.758;9.290;2023-06-01T03:50:59;13.40;1.00
429;DHT22;201;48.758;9.290;2023-06-01T03:53:25;13.40;1.00
429;DHT22;201;48.758;9.290;2023-06-01T03:55:50;13.40;1.00
429;DHT22;201;48.758;9.290;2023-06-01T03:58:17;13.40;1.00
429;DHT22;201;48.758;9.290;2023-06-01T04:00:44;13.50;1.00
429;DHT22;201;48.758;9.290;2023-06-01T04:03:11;13.50;1.00
429;DHT22;201;48.758;9.290;2023-06-01T04:05:38;13.40;1.00
429;DHT22;201;48.758;9.290;2023-06-01T04:08:04;13.40;1.00
429;DHT22;201;48.758;9.290;2023-06-01T04:10:29;13.50;1.00
429;DHT22;201;48.758;9.290;2023-06-01T04:12:55;13.50;1.00
429;DHT22;201;48.758;9.290;2023-06-01T04:15:22;13.40;1.00
429;DHT22;201;48.758;9.290;2023-06-01T04:17:48;13.40;1.00
429;DHT22;201;48.758;9.290;2023-06-01T04:20:14;13.30;1.00
429;DHT22;201;48.758;9.290;2023-06-01T04:22:44;13.30;1.00
429;DHT22;201;48.758;9.290;2023-06-01T04:25:14;13.40;1.00
429;DHT22;201;48.758;9.290;2023-06-01T04:27:45;13.50;1.00
429;DHT22;201;48.758;9.290;2023-06-01T04:30:12;13.60;1.00
429;DHT22;201;48.758;9.290;2023-06-01T04:32:38;13.70;1.00
429;DHT22;201;48.758;9.290;2023-06-01T04:35:05;13.80;1.00
429;DHT22;201;48.758;9.290;2023-06-01T04:37:34;13.90;1.00
429;DHT22;201;48.758;9.290;2023-06-01T04:40:01;14.00;1.00
429;DHT22;201;48.758;9.290;2023-06-01T04:42:29;14.10;1.00
429;DHT22;201;48.758;9.290;2023-06-01T04:44:55;14.20;1.00
429;DHT22;201;48.758;9.290;2023-06-01T04:47:23;14.20;1.00
429;DHT22;201;48.758;9.290;2023-06-01T04:49:49;14.20;1.00
429;DHT22;201;48.758;9.290;2023-06-01T04:52:14;14.30;1.00
429;DHT22;201;48.758;9.290;2023-06-01T04:54:40;14.30;1.00
429;DHT22;201;48.758;9.290;2023-06-01T04:57:06;14.50;1.00
429;DHT22;201;48.758;9.290;2023-06-01T04:59:32;14.60;1.00
429;DHT22;201;48.758;9.290;2023-06-01T05:01:59;14.80;1.00
429;DHT22;201;48.758;9.290;2023-06-01T05:04:25;15.00;1.00
429;DHT22;201;48.758;9.290;2023-06-01T05:06:50;15.30;1.00
429;DHT22;201;48.758;9.290;2023-06-01T05:09:16;15.40;1.00
429;DHT22;201;48.758;9.290;2023-06-01T05:11:43;15.50;1.00
429;DHT22;201;48.758;9.290;2023-06-01T05:14:08;15.70;1.00
429;DHT22;201;48.758;9.290;2023-06-01T05:16:34;16.00;1.00
429;DHT22;201;48.758;9.290;2023-06-01T05:19:00;16.10;1.00
429;DHT22;201;48.758;9.290;2023-06-01T05:21:25;16.20;1.00
429;DHT22;201;48.758;9.290;2023-06-01T05:23:51;16.20;1.00
429;DHT22;201;48.758;9.290;2023-06-01T05:26:16;16.50;1.00
429;DHT22;201;48.758;9.290;2023-06-01T05:28:42;16.70;1.00
429;DHT22;201;48.758;9.290;2023-06-01T05:31:08;17.10;1.00
429;DHT22;201;48.758;9.290;2023-06-01T05:33:33;17.70;1.00
429;DHT22;201;48.758;9.290;2023-06-01T05:35:58;18.00;1.00
429;DHT22;201;48.758;9.290;2023-06-01T05:38:24;18.20;1.00
429;DHT22;201;48.758;9.290;2023-06-01T05:40:49;19.00;1.00
429;DHT22;201;48.758;9.290;2023-06-01T05:43:15;19.90;1.00
429;DHT22;201;48.758;9.290;2023-06-01T05:45:41;20.20;1.00
429;DHT22;201;48.758;9.290;2023-06-01T05:48:07;20.30;1.00
429;DHT22;201;48.758;9.290;2023-06-01T05:50:32;20.40;1.00
429;DHT22;201;48.758;9.290;2023-06-01T05:52:58;21.20;1.00
429;DHT22;201;48.758;9.290;2023-06-01T05:55:23;22.20;1.00
429;DHT22;201;48.758;9.290;2023-06-01T05:57:49;23.10;1.00
429;DHT22;201;48.758;9.290;2023-06-01T06:00:15;23.90;1.00
429;DHT22;201;48.758;9.290;2023-06-01T06:02:44;24.10;1.00
429;DHT22;201;48.758;9.290;2023-06-01T06:05:10;23.80;1.00
429;DHT22;201;48.758;9.290;2023-06-01T06:07:36;23.50;1.00
429;DHT22;201;48.758;9.290;2023-06-01T06:10:02;23.30;1.00
429;DHT22;201;48.758;9.290;2023-06-01T06:12:28;23.50;1.00
429;DHT22;201;48.758;9.290;2023-06-01T06:14:53;24.00;1.00
429;DHT22;201;48.758;9.290;2023-06-01T06:17:19;24.90;1.00
429;DHT22;201;48.758;9.290;2023-06-01T06:19:45;26.00;1.00
429;DHT22;201;48.758;9.290;2023-06-01T06:22:13;26.60;1.00
429;DHT22;201;48.758;9.290;2023-06-01T06:24:38;27.00;1.00
429;DHT22;201;48.758;9.290;2023-06-01T06:27:04;27.50;1.00
429;DHT22;201;48.758;9.290;2023-06-01T06:29:29;28.20;1.00
429;DHT22;201;48.758;9.290;2023-06-01T06:31:55;28.50;1.00
429;DHT22;201;48.758;9.290;2023-06-01T06:34:21;29.00;1.00
429;DHT22;201;48.758;9.290;2023-06-01T06:36:46;29.30;1.00
429;DHT22;201;48.758;9.290;2023-06-01T06:39:12;29.30;1.00
429;DHT22;201;48.758;9.290;2023-06-01T06:41:40;29.60;1.00
429;DHT22;201;48.758;9.290;2023-06-01T06:44:05;30.10;1.00
429;DHT22;201;48.758;9.290;2023-06-01T06:46:31;30.50;1.00
429;DHT22;201;48.758;9.290;2023-06-01T06:48:56;30.90;1.00
429;DHT22;201;48.758;9.290;2023-06-01T06:51:22;31.50;1.00
429;DHT22;201;48.758;9.290;2023-06-01T06:53:48;32.00;1.00
429;DHT22;201;48.758;9.290;2023-06-01T06:56:13;32.50;1.00
429;DHT22;201;48.758;9.290;2023-06-01T06:58:39;32.20;1.00
429;DHT22;201;48.758;9.290;2023-06-01T07:01:05;32.50;1.00
429;DHT22;201;48.758;9.290;2023-06-01T07:03:33;32.90;1.00
429;DHT22;201;48.758;9.290;2023-06-01T07:05:59;33.40;1.00
429;DHT22;201;48.758;9.290;2023-06-01T07:08:25;33.20;1.00
429;DHT22;201;48.758;9.290;2023-06-01T07:10:52;33.40;1.00
429;DHT22;201;48.758;9.290;2023-06-01T07:13:18;33.70;1.00
429;DHT22;201;48.758;9.290;2023-06-01T07:15:43;34.30;1.00
429;DHT22;201;48.758;9.290;2023-06-01T07:18:09;34.60;1.00
429;DHT22;201;48.758;9.290;2023-06-01T07:20:34;34.60;1.00
429;DHT22;201;48.758;9.290;2023-06-01T07:23:00;34.70;1.00
429;DHT22;201;48.758;9.290;2023-06-01T07:25:25;35.00;1.00
429;DHT22;201;48.758;9.290;2023-06-01T07:27:51;35.10;1.00
429;DHT22;201;48.758;9.290;2023-06-01T07:30:17;35.10;1.00
429;DHT22;201;48.758;9.290;2023-06-01T07:32:43;35.00;1.00
429;DHT22;201;48.758;9.290;2023-06-01T07:35:09;35.30;1.00
429;DHT22;201;48.758;9.290;2023-06-01T07:37:35;35.90;1.00
429;DHT22;201;48.758;9.290;2023-06-01T07:40:00;36.70;1.00
429;DHT22;201;48.758;9.290;2023-06-01T07:42:26;37.40;1.00
429;DHT22;201;48.758;9.290;2023-06-01T07:44:53;37.50;1.00
429;DHT22;201;48.758;9.290;2023-06-01T07:47:18;37.60;1.00
429;DHT22;201;48.758;9.290;2023-06-01T07:49:44;37.10;1.00
429;DHT22;201;48.758;9.290;2023-06-01T07:52:09;36.80;1.00
429;DHT22;201;48.758;9.290;2023-06-01T07:54:35;37.20;1.00
429;DHT22;201;48.758;9.290;2023-06-01T07:57:02;37.10;1.00
429;DHT22;201;48.758;9.290;2023-06-01T07:59:29;36.10;1.00
429;DHT22;201;48.758;9.290;2023-06-01T08:01:55;35.20;1.00
429;DHT22;201;48.758;9.290;2023-06-01T08:04:22;35.30;1.00
429;DHT22;201;48.758;9.290;2023-06-01T08:06:49;35.30;1.00
429;DHT22;201;48.758;9.290;2023-06-01T08:09:14;35.00;1.00
429;DHT22;201;48.758;9.290;2023-06-01T08:11:40;34.50;1.00
429;DHT22;201;48.758;9.290;2023-06-01T08:14:05;33.80;1.00
429;DHT22;201;48.758;9.290;2023-06-01T08:16:34;35.10;1.00
429;DHT22;201;48.758;9.290;2023-06-01T08:19:00;36.10;1.00
429;DHT22;201;48.758;9.290;2023-06-01T08:21:26;36.50;1.00
429;DHT22;201;48.758;9.290;2023-06-01T08:23:55;37.20;1.00
429;DHT22;201;48.758;9.290;2023-06-01T08:26:24;38.00;1.00
429;DHT22;201;48.758;9.290;2023-06-01T08:28:53;38.90;1.00
429;DHT22;201;48.758;9.290;2023-06-01T08:31:20;39.60;1.00
429;DHT22;201;48.758;9.290;2023-06-01T08:33:47;40.50;1.00
429;DHT22;201;48.758;9.290;2023-06-01T08:36:13;40.70;1.00
429;DHT22;201;48.758;9.290;2023-06-01T08:38:39;39.20;1.00
429;DHT22;201;48.758;9.290;2023-06-01T08:41:17;37.80;1.00
429;DHT22;201;48.758;9.290;2023-06-01T08:43:52;38.70;1.00
429;DHT22;201;48.758;9.290;2023-06-01T08:46:20;39.30;1.00
429;DHT22;201;48.758;9.290;2023-06-01T08:48:49;38.20;1.00
429;DHT22;201;48.758;9.290;2023-06-01T08:51:17;37.60;1.00
429;DHT22;201;48.758;9.290;2023-06-01T08:53:45;38.80;1.00
429;DHT22;201;48.758;9.290;2023-06-01T08:56:11;39.90;1.00
429;DHT22;201;48.758;9.290;2023-06-01T08:58:38;40.70;1.00
429;DHT22;201;48.758;9.290;2023-06-01T09:01:05;40.30;1.00
429;DHT22;201;48.758;9.290;2023-06-01T09:03:31;40.60;1.00
429;DHT22;201;48.758;9.290;2023-06-01T09:05:57;40.20;1.00
429;DHT22;201;48.758;9.290;2023-06-01T09:08:23;41.30;1.00
429;DHT22;201;48.758;9.290;2023-06-01T09:10:49;42.20;1.00
429;DHT22;201;48.758;9.290;2023-06-01T09:13:33;42.60;1.00
429;DHT22;201;48.758;9.290;2023-06-01T09:15:59;43.60;1.00
429;DHT22;201;48.758;9.290;2023-06-01T09:18:25;43.40;1.00
429;DHT22;201;48.758;9.290;2023-06-01T09:20:50;42.40;1.00
429;DHT22;201;48.758;9.290;2023-06-01T09:23:26;41.40;1.00
429;DHT22;201;48.758;9.290;2023-06-01T09:26:05;41.00;1.00
429;DHT22;201;48.758;9.290;2023-06-01T09:31:36;42.70;1.00
429;DHT22;201;48.758;9.290;2023-06-01T09:34:03;41.20;1.00
429;DHT22;201;48.758;9.290;2023-06-01T09:36:28;40.60;1.00
429;DHT22;201;48.758;9.290;2023-06-01T09:39:04;40.50;1.00
429;DHT22;201;48.758;9.290;2023-06-01T09:41:51;40.20;1.00
429;DHT22;201;48.758;9.290;2023-06-01T09:44:30;39.90;1.00
429;DHT22;201;48.758;9.290;2023-06-01T09:46:58;41.20;1.00
429;DHT22;201;48.758;9.290;2023-06-01T09:49:26;41.70;1.00
429;DHT22;201;48.758;9.290;2023-06-01T09:51:53;43.20;1.00
429;DHT22;201;48.758;9.290;2023-06-01T09:54:29;41.50;1.00
429;DHT22;201;48.758;9.290;2023-06-01T09:56:57;39.70;1.00
429;DHT22;201;48.758;9.290;2023-06-01T09:59:23;40.30;1.00
429;DHT22;201;48.758;9.290;2023-06-01T10:01:53;41.50;1.00
429;DHT22;201;48.758;9.290;2023-06-01T10:04:22;41.00;1.00
429;DHT22;201;48.758;9.290;2023-06-01T10:06:49;40.50;1.00
429;DHT22;201;48.758;9.290;2023-06-01T10:09:17;41.10;1.00
429;DHT22;201;48.758;9.290;2023-06-01T10:11:46;41.80;1.00
429;DHT22;201;48.758;9.290;2023-06-01T10:14:12;42.40;1.00
429;DHT22;201;48.758;9.290;2023-06-01T10:16:38;42.20;1.00
429;DHT22;201;48.758;9.290;2023-06-01T10:19:07;43.70;1.00
429;DHT22;201;48.758;9.290;2023-06-01T10:21:33;43.90;1.00
429;DHT22;201;48.758;9.290;2023-06-01T10:23:59;44.10;1.00
429;DHT22;201;48.758;9.290;2023-06-01T10:26:26;45.00;1.00
429;DHT22;201;48.758;9.290;2023-06-01T10:28:53;45.60;1.00
429;DHT22;201;48.758;9.290;2023-06-01T10:31:36;44.20;1.00
429;DHT22;201;48.758;9.290;2023-06-01T10:34:02;41.30;1.00
429;DHT22;201;48.758;9.290;2023-06-01T10:39:29;38.30;1.00
429;DHT22;201;48.758;9.290;2023-06-01T10:52:29;31.90;1.00
429;DHT22;201;48.758;9.290;2023-06-01T10:55:18;31.90;1.00
429;DHT22;201;48.758;9.290;2023-06-01T10:57:43;31.90;1.00
429;DHT22;201;48.758;9.290;2023-06-01T11:00:39;31.70;1.00
429;DHT22;201;48.758;9.290;2023-06-01T11:03:05;30.70;1.00
429;DHT22;201;48.758;9.290;2023-06-01T11:05:35;29.80;1.00
429;DHT22;201;48.758;9.290;2023-06-01T11:08:02;28.90;1.00
429;DHT22;201;48.758;9.290;2023-06-01T11:13:30;28.60;1.00
429;DHT22;201;48.758;9.290;2023-06-01T11:21:09;29.30;1.00
429;DHT22;201;48.758;9.290;2023-06-01T11:23:35;29.40;1.00
429;DHT22;201;48.758;9.290;2023-06-01T11:26:04;29.60;1.00
429;DHT22;201;48.758;9.290;2023-06-01T11:28:31;29.60;1.00
429;DHT22;201;48.758;9.290;2023-06-01T11:30:59;29.40;1.00
429;DHT22;201;48.758;9.290;2023-06-01T11:33:27;29.50;1.00
429;DHT22;201;48.758;9.290;2023-06-01T11:36:00;29.70;1.00
429;DHT22;201;48.758;9.290;2023-06-01T11:38:38;29.70;1.00
429;DHT22;201;48.758;9.290;2023-06-01T11:41:04;29.60;1.00
429;DHT22;201;48.758;9.290;2023-06-01T11:43:30;29.00;1.00
429;DHT22;201;48.758;9.290;2023-06-01T11:46:14;28.60;1.00
429;DHT22;201;48.758;9.290;2023-06-01T11:48:40;28.90;1.00
429;DHT22;201;48.758;9.290;2023-06-01T11:51:06;29.20;1.00
429;DHT22;201;48.758;9.290;2023-06-01T11:53:31;29.20;1.00
429;DHT22;201;48.758;9.290;2023-06-01T11:55:57;29.40;1.00
429;DHT22;201;48.758;9.290;2023-06-01T11:58:28;29.20;1.00
429;DHT22;201;48.758;9.290;2023-06-01T12:00:55;29.30;1.00
429;DHT22;201;48.758;9.290;2023-06-01T12:03:22;29.10;1.00
429;DHT22;201;48.758;9.290;2023-06-01T12:05:49;28.80;1.00
429;DHT22;201;48.758;9.290;2023-06-01T12:08:21;28.60;1.00
429;DHT22;201;48.758;9.290;2023-06-01T12:10:47;28.40;1.00
429;DHT22;201;48.758;9.290;2023-06-01T12:13:14;28.40;1.00
429;DHT22;201;48.758;9.290;2023-06-01T12:15:40;28.00;1.00
429;DHT22;201;48.758;9.290;2023-06-01T12:18:05;27.80;1.00
429;DHT22;201;48.758;9.290;2023-06-01T12:20:42;28.00;1.00
429;DHT22;201;48.758;9.290;2023-06-01T12:25:47;28.50;1.00
429;DHT22;201;48.758;9.290;2023-06-01T12:28:13;28.50;1.00
429;DHT22;201;48.758;9.290;2023-06-01T12:30:38;28.60;1.00
429;DHT22;201;48.758;9.290;2023-06-01T12:33:04;28.70;1.00
429;DHT22;201;48.758;9.290;2023-06-01T12:35:31;28.50;1.00
429;DHT22;201;48.758;9.290;2023-06-01T12:38:10;27.70;1.00
429;DHT22;201;48.758;9.290;2023-06-01T12:40:36;27.20;1.00
429;DHT22;201;48.758;9.290;2023-06-01T12:43:02;27.30;1.00
429;DHT22;201;48.758;9.290;2023-06-01T12:45:37;27.40;1.00
429;DHT22;201;48.758;9.290;2023-06-01T12:48:04;27.50;1.00
429;DHT22;201;48.758;9.290;2023-06-01T12:50:30;27.90;1.00
429;DHT22;201;48.758;9.290;2023-06-01T12:52:55;28.00;1.00
429;DHT22;201;48.758;9.290;2023-06-01T12:55:21;28.20;1.00
429;DHT22;201;48.758;9.290;2023-06-01T12:57:53;28.10;1.00
429;DHT22;201;48.758;9.290;2023-06-01T13:00:20;27.90;1.00
429;DHT22;201;48.758;9.290;2023-06-01T13:02:46;27.60;1.00
429;DHT22;201;48.758;9.290;2023-06-01T13:05:16;27.60;1.00
429;DHT22;201;48.758;9.290;2023-06-01T13:07:43;27.90;1.00
429;DHT22;201;48.758;9.290;2023-06-01T13:10:12;28.20;1.00
429;DHT22;201;48.758;9.290;2023-06-01T13:12:38;28.50;1.00
429;DHT22;201;48.758;9.290;2023-06-01T13:15:06;28.60;1.00
429;DHT22;201;48.758;9.290;2023-06-01T13:17:31;28.50;1.00
429;DHT22;201;48.758;9.290;2023-06-01T13:19:57;28.20;1.00
429;DHT22;201;48.758;9.290;2023-06-01T13:22:23;27.90;1.00
429;DHT22;201;48.758;9.290;2023-06-01T13:24:48;27.80;1.00
429;DHT22;201;48.758;9.290;2023-06-01T13:27:14;27.60;1.00
429;DHT22;201;48.758;9.290;2023-06-01T13:29:39;27.80;1.00
429;DHT22;201;48.758;9.290;2023-06-01T13:32:05;27.90;1.00
429;DHT22;201;48.758;9.290;2023-06-01T13:34:31;27.80;1.00
429;DHT22;201;48.758;9.290;2023-06-01T13:36:57;28.00;1.00
429;DHT22;201;48.758;9.290;2023-06-01T13:39:23;28.20;1.00
429;DHT22;201;48.758;9.290;2023-06-01T13:41:49;28.30;1.00
429;DHT22;201;48.758;9.290;2023-06-01T13:44:14;28.30;1.00
429;DHT22;201;48.758;9.290;2023-06-01T13:46:40;28.00;1.00
429;DHT22;201;48.758;9.290;2023-06-01T13:49:05;27.70;1.00
429;DHT22;201;48.758;9.290;2023-06-01T13:51:32;27.60;1.00
429;DHT22;201;48.758;9.290;2023-06-01T13:53:58;27.50;1.00
429;DHT22;201;48.758;9.290;2023-06-01T13:56:24;27.50;1.00
429;DHT22;201;48.758;9.290;2023-06-01T13:58:50;27.60;1.00
429;DHT22;201;48.758;9.290;2023-06-01T14:01:16;27.70;1.00
429;DHT22;201;48.758;9.290;2023-06-01T14:03:41;27.60;1.00
429;DHT22;201;48.758;9.290;2023-06-01T14:06:07;27.50;1.00
429;DHT22;201;48.758;9.290;2023-06-01T14:08:33;27.20;1.00
429;DHT22;201;48.758;9.290;2023-06-01T14:10:59;27.10;1.00
429;DHT22;201;48.758;9.290;2023-06-01T14:13:24;27.30;1.00
429;DHT22;201;48.758;9.290;2023-06-01T14:15:50;27.60;1.00
429;DHT22;201;48.758;9.290;2023-06-01T14:18:15;27.70;1.00
429;DHT22;201;48.758;9.290;2023-06-01T14:20:41;27.80;1.00
429;DHT22;201;48.758;9.290;2023-06-01T14:23:07;27.60;1.00
429;DHT22;201;48.758;9.290;2023-06-01T14:25:34;27.40;1.00
429;DHT22;201;48.758;9.290;2023-06-01T14:28:00;27.50;1.00
429;DHT22;201;48.758;9.290;2023-06-01T14:30:25;27.40;1.00
429;DHT22;201;48.758;9.290;2023-06-01T14:32:52;27.40;1.00
429;DHT22;201;48.758;9.290;2023-06-01T14:35:18;27.30;1.00
429;DHT22;201;48.758;9.290;2023-06-01T14:37:44;27.30;1.00
429;DHT22;201;48.758;9.290;2023-06-01T14:40:10;27.50;1.00
429;DHT22;201;48.758;9.290;2023-06-01T14:42:39;27.50;1.00
429;DHT22;201;48.758;9.290;2023-06-01T14:45:06;27.50;1.00
429;DHT22;201;48.758;9.290;2023-06-01T14:47:32;27.30;1.00
429;DHT22;201;48.758;9.290;2023-06-01T14:49:57;27.20;1.00
429;DHT22;201;48.758;9.290;2023-06-01T14:52:23;27.20;1.00
429;DHT22;201;48.758;9.290;2023-06-01T14:54:48;27.10;1.00
429;DHT22;201;48.758;9.290;2023-06-01T14:57:15;26.90;1.00
429;DHT22;201;48.758;9.290;2023-06-01T14:59:40;26.90;1.00
429;DHT22;201;48.758;9.290;2023-06-01T15:02:07;27.10;1.00
429;DHT22;201;48.758;9.290;2023-06-01T15:04:33;27.30;1.00
429;DHT22;201;48.758;9.290;2023-06-01T15:06:59;27.20;1.00
429;DHT22;201;48.758;9.290;2023-06-01T15:09:25;27.10;1.00
429;DHT22;201;48.758;9.290;2023-06-01T15:11:50;27.00;1.00
429;DHT22;201;48.758;9.290;2023-06-01T15:14:16;26.90;1.00
429;DHT22;201;48.758;9.290;2023-06-01T15:16:41;27.10;1.00
429;DHT22;201;48.758;9.290;2023-06-01T15:19:07;27.20;1.00
429;DHT22;201;48.758;9.290;2023-06-01T15:21:33;27.30;1.00
429;DHT22;201;48.758;9.290;2023-06-01T15:23:58;27.20;1.00
429;DHT22;201;48.758;9.290;2023-06-01T15:26:24;27.30;1.00
429;DHT22;201;48.758;9.290;2023-06-01T15:28:50;27.20;1.00
429;DHT22;201;48.758;9.290;2023-06-01T15:31:15;26.90;1.00
429;DHT22;201;48.758;9.290;2023-06-01T15:33:41;26.50;1.00
429;DHT22;201;48.758;9.290;2023-06-01T15:36:07;26.50;1.00
429;DHT22;201;48.758;9.290;2023-06-01T15:38:32;26.70;1.00
429;DHT22;201;48.758;9.290;2023-06-01T15:41:01;26.90;1.00
429;DHT22;201;48.758;9.290;2023-06-01T15:43:26;27.00;1.00
429;DHT22;201;48.758;9.290;2023-06-01T15:45:52;26.90;1.00
429;DHT22;201;48.758;9.290;2023-06-01T15:48:17;26.60;1.00
429;DHT22;201;48.758;9.290;2023-06-01T15:50:43;26.60;1.00
429;DHT22;201;48.758;9.290;2023-06-01T15:53:08;26.60;1.00
429;DHT22;201;48.758;9.290;2023-06-01T15:55:34;26.60;1.00
429;DHT22;201;48.758;9.290;2023-06-01T15:57:59;26.60;1.00
429;DHT22;201;48.758;9.290;2023-06-01T16:00:25;26.60;1.00
429;DHT22;201;48.758;9.290;2023-06-01T16:02:52;26.60;1.00
429;DHT22;201;48.758;9.290;2023-06-01T16:05:18;26.80;1.00
429;DHT22;201;48.758;9.290;2023-06-01T16:07:43;26.90;1.00
429;DHT22;201;48.758;9.290;2023-06-01T16:10:09;26.90;1.00
429;DHT22;201;48.758;9.290;2023-06-01T16:12:34;26.80;1.00
429;DHT22;201;48.758;9.290;2023-06-01T16:15:00;26.70;1.00
429;DHT22;201;48.758;9.290;2023-06-01T16:17:25;26.60;1.00
429;DHT22;201;48.758;9.290;2023-06-01T16:19:52;26.60;1.00
429;DHT22;201;48.758;9.290;2023-06-01T16:22:17;26.70;1.00
429;DHT22;201;48.758;9.290;2023-06-01T16:24:43;26.60;1.00
429;DHT22;201;48.758;9.290;2023-06-01T16:27:08;26.60;1.00
429;DHT22;201;48.758;9.290;2023-06-01T16:29:34;26.70;1.00
429;DHT22;201;48.758;9.290;2023-06-01T16:31:59;26.60;1.00
429;DHT22;201;48.758;9.290;2023-06-01T16:34:25;26.60;1.00
429;DHT22;201;48.758;9.290;2023-06-01T16:36:51;26.50;1.00
429;DHT22;201;48.758;9.290;2023-06-01T16:39:16;26.40;1.00
429;DHT22;201;48.758;9.290;2023-06-01T16:41:42;26.60;1.00
429;DHT22;201;48.758;9.290;2023-06-01T16:44:08;26.50;1.00
429;DHT22;201;48.758;9.290;2023-06-01T16:46:33;26.40;1.00
429;DHT22;201;48.758;9.290;2023-06-01T16:48:59;26.50;1.00
429;DHT22;201;48.758;9.290;2023-06-01T16:51:24;26.50;1.00
429;DHT22;201;48.758;9.290;2023-06-01T16:53:50;26.50;1.00
429;DHT22;201;48.758;9.290;2023-06-01T16:56:16;26.50;1.00
429;DHT22;201;48.758;9.290;2023-06-01T16:58:42;26.30;1.00
429;DHT22;201;48.758;9.290;2023-06-01T17:01:07;26.10;1.00
429;DHT22;201;48.758;9.290;2023-06-01T17:03:33;25.90;1.00
429;DHT22;201;48.758;9.290;2023-06-01T17:05:58;26.00;1.00
429;DHT22;201;48.758;9.290;2023-06-01T17:08:24;26.00;1.00
429;DHT22;201;48.758;9.290;2023-06-01T17:10:49;26.00;1.00
429;DHT22;201;48.758;9.290;2023-06-01T17:13:15;25.80;1.00
429;DHT22;201;48.758;9.290;2023-06-01T17:15:40;25.70;1.00
429;DHT22;201;48.758;9.290;2023-06-01T17:18:06;25.70;1.00
429;DHT22;201;48.758;9.290;2023-06-01T17:20:35;25.70;1.00